createdAt,value
2017-10-30T00:00:49.489Z,6.44
2017-10-30T00:01:49.452Z,6.48
2017-10-30T00:02:49.414Z,6.46
2017-10-30T00:03:49.374Z,6.48
2017-10-30T00:04:49.336Z,6.46
2017-10-30T00:05:49.297Z,6.45
2017-10-30T00:06:49.260Z,6.42
2017-10-30T00:07:49.219Z,6.42
2017-10-30T00:08:49.182Z,6.44
2017-10-30T00:09:49.145Z,6.36
2017-10-30T00:10:49.102Z,6.31
2017-10-30T00:11:49.066Z,6.26
2017-10-30T00:12:49.027Z,6.26
2017-10-30T00:13:48.987Z,6.28
2017-10-30T00:14:48.949Z,6.28
2017-10-30T00:15:48.914Z,6.20
2017-10-30T00:16:48.874Z,6.22
2017-10-30T00:17:48.838Z,6.20
2017-10-30T00:18:48.794Z,6.24
2017-10-30T00:19:48.756Z,6.17
2017-10-30T00:20:48.722Z,6.24
2017-10-30T00:21:48.679Z,6.22
2017-10-30T00:22:48.640Z,6.16
2017-10-30T00:23:48.602Z,6.19
2017-10-30T00:24:48.562Z,6.19
2017-10-30T00:25:48.525Z,6.26
2017-10-30T00:26:48.486Z,6.24
2017-10-30T00:27:48.448Z,6.24
2017-10-30T00:28:48.408Z,6.31
2017-10-30T00:29:48.370Z,6.22
2017-10-30T00:30:48.331Z,6.35
2017-10-30T00:31:48.292Z,6.27
2017-10-30T00:32:48.254Z,6.28
2017-10-30T00:33:48.215Z,6.33
2017-10-30T00:34:48.176Z,6.38
2017-10-30T00:35:48.137Z,6.35
2017-10-30T00:36:48.101Z,6.44
2017-10-30T00:37:48.062Z,6.39
2017-10-30T00:38:48.022Z,6.44
2017-10-30T00:39:47.984Z,6.51
2017-10-30T00:40:47.946Z,6.38
2017-10-30T00:41:47.910Z,6.36
2017-10-30T00:42:47.867Z,6.48
2017-10-30T00:43:47.828Z,6.60
2017-10-30T00:44:47.791Z,6.59
2017-10-30T00:45:47.768Z,6.59
2017-10-30T00:46:47.715Z,6.52
2017-10-30T00:47:47.674Z,6.56
2017-10-30T00:48:47.636Z,6.62
2017-10-30T00:49:47.597Z,6.60
2017-10-30T00:50:47.560Z,6.59
2017-10-30T00:51:47.520Z,6.59
2017-10-30T00:52:47.482Z,6.60
2017-10-30T00:53:47.443Z,6.69
2017-10-30T00:54:47.828Z,6.59
2017-10-30T00:55:47.367Z,6.70
2017-10-30T00:56:47.328Z,6.67
2017-10-30T00:57:47.291Z,6.70
2017-10-30T00:58:47.256Z,6.72
2017-10-30T00:59:47.214Z,6.77
2017-10-30T01:00:47.172Z,6.77
2017-10-30T01:01:47.137Z,6.75
2017-10-30T01:02:47.097Z,6.72
2017-10-30T01:03:47.059Z,6.85
2017-10-30T01:04:47.023Z,6.81
2017-10-30T01:05:46.984Z,6.81
2017-10-30T01:06:46.949Z,6.87
2017-10-30T01:07:46.906Z,6.75
2017-10-30T01:08:46.867Z,6.84
2017-10-30T01:09:46.830Z,6.82
2017-10-30T01:10:46.790Z,6.82
2017-10-30T01:11:46.752Z,6.79
2017-10-30T01:12:46.714Z,6.78
2017-10-30T01:13:46.678Z,6.72
2017-10-30T01:14:46.636Z,6.82
2017-10-30T01:15:46.612Z,6.82
2017-10-30T01:16:46.561Z,6.77
2017-10-30T01:17:46.524Z,6.74
2017-10-30T01:18:46.484Z,6.74
2017-10-30T01:19:46.447Z,6.75
2017-10-30T01:20:46.408Z,6.75
2017-10-30T01:21:46.372Z,6.77
2017-10-30T01:22:46.330Z,6.66
2017-10-30T01:23:46.293Z,6.72
2017-10-30T01:24:46.256Z,6.72
2017-10-30T01:25:46.221Z,6.74
2017-10-30T01:26:46.179Z,6.51
2017-10-30T01:27:46.148Z,6.64
2017-10-30T01:28:46.101Z,6.57
2017-10-30T01:29:46.069Z,6.62
2017-10-30T01:30:46.024Z,6.54
2017-10-30T01:31:45.987Z,6.51
2017-10-30T01:32:45.949Z,6.54
2017-10-30T01:33:45.910Z,6.51
2017-10-30T01:34:45.871Z,6.45
2017-10-30T01:35:45.834Z,6.54
2017-10-30T01:36:45.796Z,6.63
2017-10-30T01:37:45.757Z,6.51
2017-10-30T01:38:45.721Z,6.54
2017-10-30T01:39:45.681Z,6.62
2017-10-30T01:40:45.642Z,6.62
2017-10-30T01:41:45.603Z,6.66
2017-10-30T01:42:45.564Z,6.60
2017-10-30T01:43:45.523Z,6.62
2017-10-30T01:44:45.488Z,6.63
2017-10-30T01:45:45.448Z,6.66
2017-10-30T01:46:45.411Z,6.62
2017-10-30T01:47:45.372Z,6.67
2017-10-30T01:48:45.335Z,6.63
2017-10-30T01:49:45.296Z,6.63
2017-10-30T01:50:45.257Z,6.70
2017-10-30T01:51:45.218Z,6.67
2017-10-30T01:52:45.200Z,6.70
2017-10-30T01:53:45.142Z,6.64
2017-10-30T01:54:45.105Z,6.51
2017-10-30T01:55:45.067Z,6.42
2017-10-30T01:56:45.028Z,6.41
2017-10-30T01:57:45.005Z,6.33
2017-10-30T01:58:44.951Z,6.24
2017-10-30T01:59:44.912Z,6.27
2017-10-30T02:00:44.875Z,6.20
2017-10-30T02:01:44.836Z,6.11
2017-10-30T02:02:44.802Z,6.09
2017-10-30T02:03:44.758Z,6.08
2017-10-30T02:04:44.720Z,6.05
2017-10-30T02:05:44.681Z,5.99
2017-10-30T02:06:44.643Z,6.02
2017-10-30T02:07:44.603Z,5.98
2017-10-30T02:08:44.566Z,5.98
2017-10-30T02:09:44.534Z,5.87
2017-10-30T02:10:44.488Z,5.87
2017-10-30T02:11:44.449Z,5.86
2017-10-30T02:12:44.413Z,5.84
2017-10-30T02:13:44.372Z,5.72
2017-10-30T02:14:44.334Z,5.73
2017-10-30T02:15:44.294Z,5.57
2017-10-30T02:16:44.257Z,5.65
2017-10-30T02:17:44.219Z,5.66
2017-10-30T02:18:44.179Z,5.68
2017-10-30T02:19:44.141Z,5.69
2017-10-30T02:20:44.101Z,5.66
2017-10-30T02:21:44.072Z,5.62
2017-10-30T02:22:44.023Z,5.73
2017-10-30T02:23:43.984Z,5.62
2017-10-30T02:24:43.948Z,5.65
2017-10-30T02:25:43.907Z,5.65
2017-10-30T02:26:43.867Z,5.66
2017-10-30T02:27:43.835Z,5.72
2017-10-30T02:28:43.792Z,5.79
2017-10-30T02:29:43.754Z,5.79
2017-10-30T02:30:43.712Z,5.75
2017-10-30T02:31:43.675Z,5.79
2017-10-30T02:32:43.638Z,5.76
2017-10-30T02:33:43.595Z,5.72
2017-10-30T02:34:43.559Z,5.73
2017-10-30T02:35:43.516Z,5.62
2017-10-30T02:36:43.483Z,5.61
2017-10-30T02:37:43.442Z,5.51
2017-10-30T02:38:43.396Z,5.44
2017-10-30T02:39:43.361Z,5.46
2017-10-30T02:40:43.322Z,5.46
2017-10-30T02:41:43.286Z,5.44
2017-10-30T02:42:43.243Z,5.47
2017-10-30T02:43:43.206Z,5.54
2017-10-30T02:44:43.168Z,5.35
2017-10-30T02:45:43.128Z,5.39
2017-10-30T02:46:43.088Z,5.36
2017-10-30T02:47:43.049Z,5.33
2017-10-30T02:48:43.011Z,5.36
2017-10-30T02:49:42.974Z,5.33
2017-10-30T02:50:42.933Z,5.33
2017-10-30T02:51:42.893Z,5.33
2017-10-30T02:52:42.855Z,5.25
2017-10-30T02:53:42.817Z,5.26
2017-10-30T02:54:42.777Z,5.23
2017-10-30T02:55:42.738Z,5.26
2017-10-30T02:56:42.698Z,5.26
2017-10-30T02:57:42.661Z,5.17
2017-10-30T02:58:42.622Z,5.12
2017-10-30T02:59:42.581Z,5.15
2017-10-30T03:00:42.543Z,5.10
2017-10-30T03:01:42.504Z,5.17
2017-10-30T03:02:42.463Z,5.11
2017-10-30T03:03:42.428Z,5.12
2017-10-30T03:04:42.387Z,5.17
2017-10-30T03:05:42.347Z,5.20
2017-10-30T03:06:42.308Z,5.21
2017-10-30T03:07:42.268Z,5.15
2017-10-30T03:08:42.229Z,5.21
2017-10-30T03:09:42.190Z,5.25
2017-10-30T03:10:42.151Z,5.26
2017-10-30T03:11:42.111Z,5.23
2017-10-30T03:12:42.073Z,5.35
2017-10-30T03:13:42.035Z,5.30
2017-10-30T03:14:41.994Z,5.36
2017-10-30T03:15:42.015Z,5.33
2017-10-30T03:16:41.917Z,5.36
2017-10-30T03:17:41.907Z,5.41
2017-10-30T03:18:41.837Z,5.44
2017-10-30T03:19:41.800Z,5.32
2017-10-30T03:20:41.876Z,5.48
2017-10-30T03:21:41.721Z,5.44
2017-10-30T03:22:41.686Z,5.44
2017-10-30T03:23:41.642Z,5.54
2017-10-30T03:24:41.603Z,5.46
2017-10-30T03:25:41.564Z,5.53
2017-10-30T03:26:41.525Z,5.51
2017-10-30T03:27:41.487Z,5.54
2017-10-30T03:28:41.448Z,5.54
2017-10-30T03:29:41.414Z,5.54
2017-10-30T03:30:41.368Z,5.62
2017-10-30T03:31:41.330Z,5.65
2017-10-30T03:32:41.292Z,5.62
2017-10-30T03:33:41.254Z,5.57
2017-10-30T03:34:41.211Z,5.76
2017-10-30T03:35:41.174Z,5.76
2017-10-30T03:36:41.136Z,5.62
2017-10-30T03:37:41.097Z,5.75
2017-10-30T03:38:41.056Z,5.82
2017-10-30T03:39:41.018Z,5.76
2017-10-30T03:40:40.979Z,5.76
2017-10-30T03:41:40.942Z,5.75
2017-10-30T03:42:40.895Z,5.79
2017-10-30T03:43:40.862Z,5.73
2017-10-30T03:44:40.822Z,5.66
2017-10-30T03:45:40.790Z,5.76
2017-10-30T03:46:40.745Z,5.68
2017-10-30T03:47:40.707Z,5.61
2017-10-30T03:48:40.667Z,5.71
2017-10-30T03:49:40.629Z,5.73
2017-10-30T03:50:40.590Z,5.80
2017-10-30T03:51:40.555Z,5.90
2017-10-30T03:52:40.704Z,5.83
2017-10-30T03:53:40.474Z,5.91
2017-10-30T03:54:40.436Z,6.11
2017-10-30T03:55:40.395Z,6.14
2017-10-30T03:56:40.356Z,6.08
2017-10-30T03:57:40.318Z,6.17
2017-10-30T03:58:40.279Z,6.09
2017-10-30T03:59:40.245Z,6.26
2017-10-30T04:00:40.199Z,6.22
2017-10-30T04:01:40.163Z,6.24
2017-10-30T04:02:40.123Z,6.28
2017-10-30T04:03:40.085Z,6.31
2017-10-30T04:04:40.051Z,6.31
2017-10-30T04:05:40.005Z,6.28
2017-10-30T04:06:39.968Z,6.24
2017-10-30T04:07:39.931Z,6.28
2017-10-30T04:08:39.891Z,6.20
2017-10-30T04:09:39.851Z,6.26
2017-10-30T04:10:39.813Z,6.22
2017-10-30T04:11:39.774Z,6.20
2017-10-30T04:12:39.735Z,6.26
2017-10-30T04:13:39.697Z,6.22
2017-10-30T04:14:39.661Z,6.19
2017-10-30T04:15:39.621Z,6.22
2017-10-30T04:16:39.582Z,6.12
2017-10-30T04:17:39.543Z,6.17
2017-10-30T04:18:39.504Z,6.14
2017-10-30T04:19:39.466Z,6.08
2017-10-30T04:20:39.425Z,6.16
2017-10-30T04:21:39.386Z,6.16
2017-10-30T04:22:39.349Z,6.27
2017-10-30T04:23:39.309Z,6.31
2017-10-30T04:24:39.274Z,6.22
2017-10-30T04:25:39.233Z,6.33
2017-10-30T04:26:39.194Z,6.27
2017-10-30T04:27:39.156Z,6.31
2017-10-30T04:28:39.117Z,6.33
2017-10-30T04:29:39.079Z,6.38
2017-10-30T04:30:39.038Z,6.38
2017-10-30T04:31:39.000Z,6.44
2017-10-30T04:32:38.962Z,6.38
2017-10-30T04:33:38.924Z,6.36
2017-10-30T04:34:38.886Z,6.44
2017-10-30T04:35:38.846Z,6.45
2017-10-30T04:36:38.815Z,6.49
2017-10-30T04:37:38.769Z,6.48
2017-10-30T04:38:38.731Z,6.48
2017-10-30T04:39:38.691Z,6.46
2017-10-30T04:40:38.655Z,6.56
2017-10-30T04:41:38.615Z,6.46
2017-10-30T04:42:38.586Z,6.52
2017-10-30T04:43:38.539Z,6.59
2017-10-30T04:44:38.499Z,6.56
2017-10-30T04:45:38.462Z,6.57
2017-10-30T04:46:38.438Z,6.60
2017-10-30T04:47:38.383Z,6.69
2017-10-30T04:48:38.359Z,6.57
2017-10-30T04:49:38.306Z,6.67
2017-10-30T04:50:38.269Z,6.67
2017-10-30T04:51:38.231Z,6.63
2017-10-30T04:52:38.192Z,6.56
2017-10-30T04:53:38.156Z,6.66
2017-10-30T04:54:38.115Z,6.72
2017-10-30T04:55:38.077Z,6.64
2017-10-30T04:56:38.042Z,6.67
2017-10-30T04:57:38.000Z,6.60
2017-10-30T04:58:37.961Z,6.54
2017-10-30T04:59:37.921Z,6.54
2017-10-30T05:00:37.884Z,6.56
2017-10-30T05:01:37.845Z,6.56
2017-10-30T05:02:37.806Z,6.49
2017-10-30T05:03:37.768Z,6.44
2017-10-30T05:04:37.729Z,6.41
2017-10-30T05:05:37.694Z,6.39
2017-10-30T05:06:37.655Z,6.26
2017-10-30T05:07:37.613Z,6.26
2017-10-30T05:08:37.583Z,6.19
2017-10-30T05:09:37.538Z,6.11
2017-10-30T05:10:37.497Z,6.09
2017-10-30T05:11:37.461Z,6.04
2017-10-30T05:12:37.443Z,6.08
2017-10-30T05:13:37.383Z,5.98
2017-10-30T05:14:37.344Z,5.93
2017-10-30T05:15:37.304Z,5.86
2017-10-30T05:16:37.267Z,5.84
2017-10-30T05:17:37.229Z,5.83
2017-10-30T05:18:37.188Z,5.76
2017-10-30T05:19:37.150Z,5.75
2017-10-30T05:20:37.112Z,5.72
2017-10-30T05:21:37.074Z,5.69
2017-10-30T05:22:37.035Z,5.65
2017-10-30T05:23:36.995Z,5.61
2017-10-30T05:24:36.956Z,5.51
2017-10-30T05:25:36.919Z,5.46
2017-10-30T05:26:36.879Z,5.48
2017-10-30T05:27:36.839Z,5.44
2017-10-30T05:28:36.803Z,5.35
2017-10-30T05:29:36.762Z,5.36
2017-10-30T05:30:36.723Z,5.39
2017-10-30T05:31:36.683Z,5.39
2017-10-30T05:32:36.646Z,5.41
2017-10-30T05:33:36.613Z,5.43
2017-10-30T05:34:36.571Z,5.46
2017-10-30T05:35:36.636Z,5.33
2017-10-30T05:36:36.489Z,5.35
2017-10-30T05:37:36.450Z,5.33
2017-10-30T05:38:36.411Z,5.29
2017-10-30T05:39:36.371Z,5.38
2017-10-30T05:40:36.333Z,5.43
2017-10-30T05:41:36.294Z,5.38
2017-10-30T05:42:36.255Z,5.38
2017-10-30T05:43:36.221Z,5.35
2017-10-30T05:44:36.176Z,5.43
2017-10-30T05:45:36.137Z,5.43
2017-10-30T05:46:36.098Z,5.33
2017-10-30T05:47:36.275Z,5.30
2017-10-30T05:48:36.020Z,5.32
2017-10-30T05:49:35.980Z,5.32
2017-10-30T05:50:35.941Z,5.30
2017-10-30T05:51:35.903Z,5.32
2017-10-30T05:52:35.864Z,5.35
2017-10-30T05:53:35.825Z,5.36
2017-10-30T05:54:35.786Z,5.39
2017-10-30T05:55:35.746Z,5.36
2017-10-30T05:56:35.706Z,5.36
2017-10-30T05:57:35.666Z,5.36
2017-10-30T05:58:35.629Z,5.51
2017-10-30T05:59:35.588Z,5.47
2017-10-30T06:00:35.552Z,5.41
2017-10-30T06:01:35.511Z,5.47
2017-10-30T06:02:35.472Z,5.41
2017-10-30T06:03:35.432Z,5.46
2017-10-30T06:04:35.395Z,5.44
2017-10-30T06:05:35.354Z,5.44
2017-10-30T06:06:35.316Z,5.35
2017-10-30T06:07:35.276Z,5.41
2017-10-30T06:08:35.236Z,5.46
2017-10-30T06:09:35.197Z,5.48
2017-10-30T06:10:35.150Z,5.48
2017-10-30T06:11:35.314Z,5.46
2017-10-30T06:12:35.080Z,5.47
2017-10-30T06:13:35.041Z,5.47
2017-10-30T06:14:35.000Z,5.51
2017-10-30T06:15:35.046Z,5.56
2017-10-30T06:16:34.924Z,5.54
2017-10-30T06:17:34.884Z,5.59
2017-10-30T06:18:34.844Z,5.50
2017-10-30T06:19:34.806Z,5.47
2017-10-30T06:20:34.765Z,5.44
2017-10-30T06:21:34.729Z,5.44
2017-10-30T06:22:34.687Z,5.44
2017-10-30T06:23:34.650Z,5.46
2017-10-30T06:24:34.610Z,5.46
2017-10-30T06:25:34.578Z,5.36
2017-10-30T06:26:34.532Z,5.32
2017-10-30T06:27:34.493Z,5.36
2017-10-30T06:28:34.454Z,5.36
2017-10-30T06:29:34.413Z,5.41
2017-10-30T06:30:34.375Z,5.36
2017-10-30T06:31:34.336Z,5.41
2017-10-30T06:32:34.297Z,5.29
2017-10-30T06:33:34.256Z,5.33
2017-10-30T06:34:34.220Z,5.38
2017-10-30T06:35:34.180Z,5.33
2017-10-30T06:36:34.140Z,5.35
2017-10-30T06:37:34.103Z,5.32
2017-10-30T06:38:34.061Z,5.33
2017-10-30T06:39:34.024Z,5.32
2017-10-30T06:40:33.987Z,5.28
2017-10-30T06:41:33.946Z,5.36
2017-10-30T06:42:33.905Z,5.36
2017-10-30T06:43:33.868Z,5.36
2017-10-30T06:44:33.828Z,5.32
2017-10-30T06:45:33.789Z,5.33
2017-10-30T06:46:33.743Z,5.28
2017-10-30T06:47:33.709Z,5.35
2017-10-30T06:48:33.677Z,5.32
2017-10-30T06:49:33.632Z,5.32
2017-10-30T06:50:33.592Z,5.30
2017-10-30T06:51:33.555Z,5.41
2017-10-30T06:52:33.515Z,5.33
2017-10-30T06:53:33.476Z,5.41
2017-10-30T06:54:33.437Z,5.38
2017-10-30T06:55:33.399Z,5.32
2017-10-30T06:56:33.361Z,5.56
2017-10-30T06:57:33.321Z,5.53
2017-10-30T06:58:33.281Z,5.61
2017-10-30T06:59:33.246Z,5.72
2017-10-30T07:00:33.204Z,5.83
2017-10-30T07:01:33.167Z,5.97
2017-10-30T07:02:33.126Z,5.99
2017-10-30T07:03:33.089Z,6.02
2017-10-30T07:04:33.052Z,6.17
2017-10-30T07:05:33.013Z,6.20
2017-10-30T07:06:32.975Z,6.26
2017-10-30T07:07:32.938Z,6.33
2017-10-30T07:08:32.899Z,6.46
2017-10-30T07:09:32.864Z,6.52
2017-10-30T07:10:32.825Z,6.56
2017-10-30T07:11:32.789Z,6.67
2017-10-30T07:12:32.754Z,6.87
2017-10-30T07:13:32.716Z,6.88
2017-10-30T07:14:32.677Z,6.96
2017-10-30T07:15:32.640Z,7.10
2017-10-30T07:16:32.603Z,7.13
2017-10-30T07:17:32.567Z,7.18
2017-10-30T07:18:32.531Z,7.20
2017-10-30T07:19:32.495Z,7.28
2017-10-30T07:20:32.459Z,7.40
2017-10-30T07:21:32.423Z,7.40
2017-10-30T07:22:32.388Z,7.48
2017-10-30T07:23:32.353Z,7.47
2017-10-30T07:24:32.317Z,7.58
2017-10-30T07:25:32.281Z,7.66
2017-10-30T07:26:32.244Z,7.73
2017-10-30T07:27:32.210Z,7.75
2017-10-30T07:28:32.175Z,7.80
2017-10-30T07:29:32.138Z,7.94
2017-10-30T07:30:32.102Z,8.00
2017-10-30T07:31:32.068Z,8.15
2017-10-30T07:32:32.030Z,8.16
2017-10-30T07:33:31.998Z,8.26
2017-10-30T07:34:31.963Z,8.46
2017-10-30T07:35:31.930Z,8.64
2017-10-30T07:36:31.894Z,8.70
2017-10-30T07:37:31.858Z,8.92
2017-10-30T07:38:31.824Z,9.08
2017-10-30T07:39:31.792Z,9.34
2017-10-30T07:40:31.756Z,9.46
2017-10-30T07:41:31.723Z,9.56
2017-10-30T07:42:31.689Z,9.82
2017-10-30T07:43:31.656Z,9.94
2017-10-30T07:44:31.623Z,10.19
2017-10-30T07:45:31.592Z,10.23
2017-10-30T07:46:31.560Z,10.37
2017-10-30T07:47:31.529Z,10.42
2017-10-30T07:48:31.494Z,10.63
2017-10-30T07:49:31.463Z,10.72
2017-10-30T07:50:31.436Z,10.93
2017-10-30T07:51:31.399Z,11.12
2017-10-30T07:52:31.369Z,11.18
2017-10-30T07:53:31.344Z,11.32
2017-10-30T07:54:31.306Z,11.59
2017-10-30T07:55:31.354Z,11.65
2017-10-30T07:56:31.252Z,11.91
2017-10-30T07:57:31.225Z,11.91
2017-10-30T07:58:31.187Z,12.18
2017-10-30T07:59:31.158Z,12.40
2017-10-30T08:00:31.128Z,12.64
2017-10-30T08:01:31.102Z,12.72
2017-10-30T08:02:31.069Z,12.80
2017-10-30T08:03:31.041Z,12.94
2017-10-30T08:04:31.013Z,12.86
2017-10-30T08:05:30.985Z,12.79
2017-10-30T08:06:30.955Z,12.79
2017-10-30T08:07:30.929Z,13.01
2017-10-30T08:08:30.898Z,13.18
2017-10-30T08:09:30.870Z,13.19
2017-10-30T08:10:30.843Z,13.30
2017-10-30T08:11:30.816Z,13.37
2017-10-30T08:12:30.787Z,13.19
2017-10-30T08:13:30.760Z,13.27
2017-10-30T08:14:30.731Z,13.37
2017-10-30T08:15:30.706Z,13.23
2017-10-30T08:16:30.678Z,13.42
2017-10-30T08:17:30.651Z,13.47
2017-10-30T08:18:30.621Z,13.25
2017-10-30T08:19:30.597Z,13.39
2017-10-30T08:20:30.569Z,13.27
2017-10-30T08:21:30.540Z,13.42
2017-10-30T08:22:30.515Z,13.54
2017-10-30T08:23:30.489Z,13.56
2017-10-30T08:24:30.461Z,13.67
2017-10-30T08:25:30.670Z,13.53
2017-10-30T08:26:30.407Z,13.47
2017-10-30T08:27:30.383Z,13.70
2017-10-30T08:28:30.355Z,13.99
2017-10-30T08:29:30.330Z,13.93
2017-10-30T08:30:30.302Z,13.75
2017-10-30T08:31:30.278Z,13.68
2017-10-30T08:32:30.248Z,13.81
2017-10-30T08:33:30.223Z,13.89
2017-10-30T08:34:30.196Z,13.74
2017-10-30T08:35:30.179Z,13.44
2017-10-30T08:36:30.560Z,13.28
2017-10-30T08:37:30.116Z,13.05
2017-10-30T08:38:30.086Z,12.87
2017-10-30T08:39:30.057Z,12.73
2017-10-30T08:40:30.030Z,12.58
2017-10-30T08:41:30.004Z,12.54
2017-10-30T08:42:29.976Z,12.76
2017-10-30T08:43:29.947Z,13.15
2017-10-30T08:44:29.915Z,13.47
2017-10-30T08:45:29.887Z,13.70
2017-10-30T08:46:29.859Z,13.89
2017-10-30T08:47:29.830Z,14.29
2017-10-30T08:48:29.804Z,14.63
2017-10-30T08:49:29.776Z,14.89
2017-10-30T08:50:29.749Z,15.07
2017-10-30T08:51:29.724Z,15.15
2017-10-30T08:52:29.696Z,15.37
2017-10-30T08:53:29.672Z,15.55
2017-10-30T08:54:29.645Z,15.64
2017-10-30T08:55:30.056Z,15.68
2017-10-30T08:56:29.593Z,15.54
2017-10-30T08:57:29.571Z,15.82
2017-10-30T08:58:29.544Z,15.83
2017-10-30T08:59:29.521Z,15.95
2017-10-30T09:00:30.061Z,16.00
2017-10-30T09:01:29.472Z,15.88
2017-10-30T09:02:29.446Z,15.86
2017-10-30T09:03:29.417Z,15.86
2017-10-30T09:04:29.399Z,15.94
2017-10-30T09:05:29.375Z,16.13
2017-10-30T09:06:29.351Z,16.16
2017-10-30T09:07:29.327Z,16.31
2017-10-30T09:08:29.304Z,16.16
2017-10-30T09:09:29.280Z,16.23
2017-10-30T09:10:29.258Z,16.33
2017-10-30T09:11:29.233Z,16.26
2017-10-30T09:12:29.372Z,16.64
2017-10-30T09:13:29.187Z,16.72
2017-10-30T09:14:29.163Z,16.87
2017-10-30T09:15:29.139Z,17.08
2017-10-30T09:16:29.119Z,16.97
2017-10-30T09:17:29.097Z,17.08
2017-10-30T09:18:29.627Z,17.16
2017-10-30T09:19:29.048Z,17.16
2017-10-30T09:20:29.024Z,17.52
2017-10-30T09:21:29.628Z,17.64
2017-10-30T09:22:28.980Z,17.97
2017-10-30T09:23:28.958Z,17.86
2017-10-30T09:25:28.915Z,18.43
2017-10-30T09:26:28.892Z,18.34
2017-10-30T09:27:28.868Z,18.59
2017-10-30T09:28:28.848Z,18.58
2017-10-30T09:29:28.827Z,18.40
2017-10-30T09:30:28.805Z,18.25
2017-10-30T09:31:28.781Z,18.53
2017-10-30T09:32:28.759Z,18.73
2017-10-30T09:33:28.803Z,18.95
2017-10-30T09:34:28.724Z,18.98
2017-10-30T09:35:28.696Z,18.73
2017-10-30T09:36:28.672Z,19.09
2017-10-30T09:37:28.650Z,19.48
2017-10-30T09:38:28.628Z,19.63
2017-10-30T09:39:28.609Z,19.62
2017-10-30T09:40:28.585Z,19.56
2017-10-30T09:41:28.565Z,19.79
2017-10-30T09:42:28.543Z,19.94
2017-10-30T09:43:28.524Z,19.88
2017-10-30T09:44:28.501Z,20.07
2017-10-30T09:45:28.481Z,20.34
2017-10-30T09:46:28.491Z,20.43
2017-10-30T09:47:28.438Z,20.47
2017-10-30T09:48:28.417Z,20.16
2017-10-30T09:49:28.398Z,20.37
2017-10-30T09:50:28.374Z,20.74
2017-10-30T09:51:28.354Z,20.75
2017-10-30T09:52:28.336Z,20.65
2017-10-30T09:53:28.311Z,20.67
2017-10-30T09:54:28.293Z,21.11
2017-10-30T09:55:28.280Z,21.02
2017-10-30T09:56:28.252Z,21.36
2017-10-30T09:57:28.233Z,21.09
2017-10-30T09:58:28.211Z,20.72
2017-10-30T09:59:28.192Z,21.33
2017-10-30T10:00:28.171Z,20.96
2017-10-30T10:01:28.150Z,21.37
2017-10-30T10:02:28.130Z,22.11
2017-10-30T10:03:28.111Z,21.67
2017-10-30T10:04:28.090Z,21.40
2017-10-30T10:05:28.071Z,21.67
2017-10-30T10:06:28.049Z,22.32
2017-10-30T10:07:28.029Z,22.33
2017-10-30T10:08:28.011Z,22.26
2017-10-30T10:09:28.042Z,22.13
2017-10-30T10:10:27.968Z,21.61
2017-10-30T10:11:27.949Z,21.82
2017-10-30T10:12:27.936Z,21.85
2017-10-30T10:13:27.909Z,21.89
2017-10-30T10:14:27.884Z,21.37
2017-10-30T10:15:27.868Z,21.82
2017-10-30T10:16:27.847Z,21.14
2017-10-30T10:17:27.828Z,21.14
2017-10-30T10:18:27.805Z,21.67
2017-10-30T10:19:27.786Z,21.45
2017-10-30T10:20:27.766Z,21.60
2017-10-30T10:21:27.744Z,21.72
2017-10-30T10:22:27.725Z,22.14
2017-10-30T10:23:27.704Z,22.23
2017-10-30T10:24:27.684Z,22.07
2017-10-30T10:25:27.665Z,21.48
2017-10-30T10:26:27.642Z,21.37
2017-10-30T10:27:27.622Z,21.30
2017-10-30T10:28:27.610Z,21.14
2017-10-30T10:29:27.583Z,21.12
2017-10-30T10:30:27.561Z,21.07
2017-10-30T10:31:27.541Z,21.57
2017-10-30T10:32:27.523Z,21.05
2017-10-30T10:33:27.500Z,21.05
2017-10-30T10:34:27.479Z,20.50
2017-10-30T10:35:27.459Z,20.60
2017-10-30T10:36:27.437Z,20.81
2017-10-30T10:37:27.419Z,20.70
2017-10-30T10:38:27.406Z,20.37
2017-10-30T10:39:27.372Z,19.81
2017-10-30T10:40:27.350Z,19.64
2017-10-30T10:41:27.335Z,20.10
2017-10-30T10:42:27.307Z,20.90
2017-10-30T10:43:27.286Z,21.03
2017-10-30T10:44:27.268Z,21.35
2017-10-30T10:45:27.254Z,21.66
2017-10-30T10:46:27.221Z,21.18
2017-10-30T10:47:27.201Z,21.05
2017-10-30T10:48:27.180Z,22.11
2017-10-30T10:49:27.161Z,21.20
2017-10-30T10:50:27.137Z,21.06
2017-10-30T10:51:27.115Z,21.09
2017-10-30T10:52:27.113Z,21.60
2017-10-30T10:53:27.073Z,21.83
2017-10-30T10:54:27.050Z,22.41
2017-10-30T10:55:27.031Z,22.87
2017-10-30T10:56:27.011Z,23.05
2017-10-30T10:57:26.993Z,23.23
2017-10-30T10:58:26.968Z,22.73
2017-10-30T10:59:26.947Z,22.75
2017-10-30T11:00:26.926Z,22.91
2017-10-30T11:01:26.908Z,23.12
2017-10-30T11:02:26.886Z,22.48
2017-10-30T11:03:26.864Z,21.93
2017-10-30T11:04:26.844Z,21.00
2017-10-30T11:05:26.823Z,21.17
2017-10-30T11:06:26.799Z,21.32
2017-10-30T11:07:26.779Z,21.57
2017-10-30T11:08:26.770Z,21.95
2017-10-30T11:09:26.986Z,22.14
2017-10-30T11:10:26.716Z,22.72
2017-10-30T11:11:26.696Z,23.23
2017-10-30T11:12:26.674Z,22.26
2017-10-30T11:13:26.653Z,21.85
2017-10-30T11:14:26.633Z,22.13
2017-10-30T11:15:26.610Z,22.54
2017-10-30T11:16:26.590Z,22.80
2017-10-30T11:17:26.572Z,23.50
2017-10-30T11:18:26.548Z,24.02
2017-10-30T11:19:26.529Z,24.17
2017-10-30T11:20:26.508Z,23.66
2017-10-30T11:21:26.488Z,23.71
2017-10-30T11:22:26.467Z,24.02
2017-10-30T11:23:26.447Z,23.32
2017-10-30T11:24:26.430Z,23.03
2017-10-30T11:25:26.405Z,23.17
2017-10-30T11:26:26.384Z,23.37
2017-10-30T11:27:26.364Z,23.65
2017-10-30T11:28:26.352Z,23.81
2017-10-30T11:29:26.325Z,23.91
2017-10-30T11:30:26.834Z,24.36
2017-10-30T11:31:27.575Z,24.32
2017-10-30T11:32:26.263Z,23.71
2017-10-30T11:33:26.292Z,23.20
2017-10-30T11:34:26.227Z,22.68
2017-10-30T11:35:26.202Z,22.81
2017-10-30T11:36:26.182Z,23.09
2017-10-30T11:37:26.162Z,23.87
2017-10-30T11:38:26.139Z,24.03
2017-10-30T11:39:26.120Z,24.33
2017-10-30T11:40:26.100Z,24.60
2017-10-30T11:41:26.081Z,23.59
2017-10-30T11:42:26.060Z,22.72
2017-10-30T11:43:26.040Z,21.83
2017-10-30T11:44:26.019Z,21.09
2017-10-30T11:45:26.000Z,20.06
2017-10-30T11:46:25.974Z,19.94
2017-10-30T11:47:25.954Z,19.34
2017-10-30T11:48:25.931Z,18.62
2017-10-30T11:49:25.909Z,18.35
2017-10-30T11:50:26.812Z,18.01
2017-10-30T11:51:25.860Z,17.67
2017-10-30T11:52:25.837Z,17.31
2017-10-30T11:53:25.944Z,17.49
2017-10-30T11:54:25.791Z,17.48
2017-10-30T11:55:25.762Z,17.14
2017-10-30T11:56:25.737Z,17.12
2017-10-30T11:57:25.712Z,17.83
2017-10-30T11:58:25.686Z,18.23
2017-10-30T11:59:25.674Z,18.60
2017-10-30T12:00:25.637Z,19.30
2017-10-30T12:01:25.954Z,19.85
2017-10-30T12:02:25.589Z,20.36
2017-10-30T12:03:25.571Z,20.95
2017-10-30T12:04:25.543Z,21.50
2017-10-30T12:05:25.518Z,22.04
2017-10-30T12:06:25.496Z,22.48
2017-10-30T12:07:25.476Z,22.70
2017-10-30T12:08:25.453Z,22.99
2017-10-30T12:09:25.433Z,23.21
2017-10-30T12:10:26.191Z,23.40
2017-10-30T12:11:25.385Z,23.40
2017-10-30T12:12:25.375Z,22.83
2017-10-30T12:13:25.344Z,22.36
2017-10-30T12:14:25.323Z,22.00
2017-10-30T12:15:25.302Z,21.06
2017-10-30T12:16:25.281Z,20.24
2017-10-30T12:17:25.261Z,20.10
2017-10-30T12:18:25.254Z,19.58
2017-10-30T12:19:25.213Z,19.19
2017-10-30T12:20:25.234Z,19.00
2017-10-30T12:21:25.177Z,18.65
2017-10-30T12:22:25.155Z,18.34
2017-10-30T12:23:25.133Z,17.65
2017-10-30T12:24:25.109Z,17.36
2017-10-30T12:25:25.087Z,17.14
2017-10-30T12:26:25.073Z,16.94
2017-10-30T12:27:25.038Z,16.69
2017-10-30T12:28:25.017Z,16.24
2017-10-30T12:29:24.989Z,16.04
2017-10-30T12:30:24.961Z,15.76
2017-10-30T12:31:24.936Z,15.40
2017-10-30T12:32:24.908Z,15.21
2017-10-30T12:33:24.881Z,15.06
2017-10-30T12:34:24.852Z,14.85
2017-10-30T12:35:24.826Z,14.70
2017-10-30T12:36:24.795Z,15.24
2017-10-30T12:37:24.770Z,16.28
2017-10-30T12:38:24.743Z,16.90
2017-10-30T12:39:24.713Z,17.89
2017-10-30T12:40:24.689Z,18.93
2017-10-30T12:41:24.818Z,19.86
2017-10-30T12:42:24.637Z,19.19
2017-10-30T12:43:24.938Z,18.80
2017-10-30T12:44:24.585Z,18.35
2017-10-30T12:45:24.561Z,17.64
2017-10-30T12:46:24.533Z,16.86
2017-10-30T12:47:24.505Z,16.36
2017-10-30T12:48:24.481Z,15.97
2017-10-30T12:49:24.455Z,15.57
2017-10-30T12:50:24.427Z,15.37
2017-10-30T12:51:24.396Z,14.94
2017-10-30T12:52:24.368Z,14.81
2017-10-30T12:53:24.339Z,14.62
2017-10-30T12:54:24.310Z,14.41
2017-10-30T12:55:24.282Z,14.48
2017-10-30T12:56:24.253Z,14.28
2017-10-30T12:57:24.223Z,14.18
2017-10-30T12:58:24.192Z,14.20
2017-10-30T12:59:24.162Z,14.12
2017-10-30T13:00:24.133Z,14.18
2017-10-30T13:01:24.103Z,14.00
2017-10-30T13:02:24.070Z,13.95
2017-10-30T13:03:24.042Z,13.78
2017-10-30T13:04:24.014Z,13.77
2017-10-30T13:05:23.980Z,13.78
2017-10-30T13:06:23.947Z,13.63
2017-10-30T13:07:23.918Z,13.63
2017-10-30T13:08:23.888Z,13.63